createdAt,value
2023-11-30T00:01:27.732Z,29.00
2023-11-30T00:03:55.641Z,28.27
2023-11-30T00:06:23.759Z,29.60
2023-11-30T00:08:54.620Z,25.83
2023-11-30T00:11:22.673Z,26.90
2023-11-30T00:13:50.669Z,26.20
2023-11-30T00:16:18.745Z,26.63
2023-11-30T00:18:46.679Z,24.65
2023-11-30T00:21:15.252Z,24.85
2023-11-30T00:23:43.100Z,23.77
2023-11-30T00:26:12.587Z,25.52
2023-11-30T00:28:41.649Z,25.30
2023-11-30T00:31:09.562Z,26.90
2023-11-30T00:33:37.815Z,25.27
2023-11-30T00:36:09.449Z,27.13
2023-11-30T00:38:37.616Z,25.10
2023-11-30T00:41:05.590Z,26.23
2023-11-30T00:43:34.868Z,24.13
2023-11-30T00:46:09.500Z,24.02
2023-11-30T00:48:38.411Z,24.05
2023-11-30T00:51:06.515Z,23.67
2023-11-30T00:53:34.549Z,23.27
2023-11-30T00:56:02.384Z,21.75
2023-11-30T00:58:30.636Z,21.13
2023-11-30T01:01:00.010Z,22.67
2023-11-30T01:03:28.111Z,22.08
2023-11-30T01:05:56.116Z,21.98
2023-11-30T01:08:24.332Z,20.58
2023-11-30T01:10:52.182Z,21.67
2023-11-30T01:13:20.098Z,21.67
2023-11-30T01:15:48.339Z,21.45
2023-11-30T01:18:17.947Z,19.85
2023-11-30T01:20:45.952Z,20.65
2023-11-30T01:23:14.022Z,21.65
2023-11-30T01:25:41.949Z,19.05
2023-11-30T01:28:09.968Z,18.65
2023-11-30T01:30:38.144Z,17.30
2023-11-30T01:33:06.257Z,18.77
2023-11-30T01:35:35.637Z,19.48
2023-11-30T01:38:05.264Z,16.58
2023-11-30T01:40:33.957Z,19.75
2023-11-30T01:43:02.011Z,15.90
2023-11-30T01:45:30.319Z,16.77
2023-11-30T01:47:58.663Z,18.30
2023-11-30T01:50:26.914Z,18.98
2023-11-30T01:52:56.325Z,17.75
2023-11-30T01:55:24.444Z,17.08
2023-11-30T01:57:52.619Z,16.98
2023-11-30T02:00:21.737Z,9.82
2023-11-30T02:02:50.576Z,14.02
2023-11-30T02:05:18.620Z,15.98
2023-11-30T02:07:46.798Z,11.68
2023-11-30T02:10:16.237Z,11.00
2023-11-30T02:12:44.124Z,11.20
2023-11-30T02:15:12.224Z,12.55
2023-11-30T02:17:40.487Z,9.60
2023-11-30T02:20:09.385Z,9.50
2023-11-30T02:22:38.781Z,8.63
2023-11-30T02:25:07.542Z,11.65
2023-11-30T02:27:35.616Z,13.00
2023-11-30T02:30:03.542Z,11.65
2023-11-30T02:32:31.435Z,13.38
2023-11-30T02:34:59.659Z,13.95
2023-11-30T02:38:06.778Z,14.98
2023-11-30T02:40:35.103Z,14.32
2023-11-30T02:43:02.898Z,16.95
2023-11-30T02:45:31.781Z,15.15
2023-11-30T02:48:00.009Z,15.10
2023-11-30T02:50:27.957Z,15.15
2023-11-30T02:52:55.869Z,17.10
2023-11-30T02:55:25.072Z,17.20
2023-11-30T02:57:53.104Z,16.10
2023-11-30T03:00:21.410Z,17.25
2023-11-30T03:02:49.317Z,16.05
2023-11-30T03:05:17.366Z,14.05
2023-11-30T03:07:46.292Z,12.52
2023-11-30T03:10:14.353Z,11.02
2023-11-30T03:12:43.617Z,14.80
2023-11-30T03:15:14.176Z,15.60
2023-11-30T03:17:42.396Z,17.50
2023-11-30T03:20:11.566Z,16.48
2023-11-30T03:22:39.757Z,17.83
2023-11-30T03:25:08.591Z,15.43
2023-11-30T03:27:36.472Z,17.88
2023-11-30T03:30:06.984Z,20.80
2023-11-30T03:32:35.065Z,20.70
2023-11-30T03:35:04.049Z,19.63
2023-11-30T03:37:31.945Z,18.85
2023-11-30T03:40:00.069Z,18.63
2023-11-30T03:42:28.167Z,18.67
2023-11-30T03:44:56.406Z,18.67
2023-11-30T03:47:25.668Z,20.23
2023-11-30T03:49:53.876Z,20.73
2023-11-30T03:52:22.655Z,18.65
2023-11-30T03:54:50.926Z,18.88
2023-11-30T03:57:18.831Z,20.20
2023-11-30T03:59:47.731Z,19.20
2023-11-30T04:02:15.743Z,21.75
2023-11-30T04:04:45.091Z,20.20
2023-11-30T04:07:13.294Z,20.75
2023-11-30T04:09:41.224Z,22.25
2023-11-30T04:12:09.470Z,22.30
2023-11-30T04:14:37.434Z,21.00
2023-11-30T04:17:05.795Z,19.63
2023-11-30T04:19:35.011Z,19.42
2023-11-30T04:22:04.819Z,21.67
2023-11-30T04:24:32.779Z,20.85
2023-11-30T04:27:01.224Z,20.98
2023-11-30T04:29:29.375Z,19.95
2023-11-30T04:31:58.280Z,19.45
2023-11-30T04:34:26.323Z,19.17
2023-11-30T04:36:54.219Z,22.13
2023-11-30T04:39:23.858Z,21.25
2023-11-30T04:41:54.243Z,21.42
2023-11-30T04:44:24.123Z,20.30
2023-11-30T04:46:52.170Z,20.95
2023-11-30T04:49:20.362Z,20.15
2023-11-30T04:51:48.341Z,19.90
2023-11-30T04:54:17.494Z,20.63
2023-11-30T04:56:46.917Z,18.67
2023-11-30T04:59:14.811Z,20.90
2023-11-30T05:01:42.909Z,25.10
2023-11-30T05:04:11.316Z,21.70
2023-11-30T05:06:39.457Z,16.50
2023-11-30T05:09:07.938Z,17.52
2023-11-30T05:11:36.168Z,18.90
2023-11-30T05:14:05.533Z,20.33
2023-11-30T05:16:33.660Z,18.13
2023-11-30T05:19:02.335Z,17.95
2023-11-30T05:21:30.258Z,17.45
2023-11-30T05:23:58.466Z,17.92
2023-11-30T05:26:26.496Z,21.27
2023-11-30T05:28:54.418Z,15.57
2023-11-30T05:31:24.352Z,19.35
2023-11-30T05:33:52.349Z,17.73
2023-11-30T05:36:20.420Z,16.38
2023-11-30T05:38:48.504Z,14.68
2023-11-30T05:41:18.017Z,14.00
2023-11-30T05:43:46.316Z,10.73
2023-11-30T05:46:14.185Z,13.15
2023-11-30T05:48:43.772Z,11.50
2023-11-30T05:51:11.716Z,14.57
2023-11-30T05:53:40.031Z,11.98
2023-11-30T05:56:08.860Z,13.57
2023-11-30T05:58:36.905Z,12.70
2023-11-30T06:01:05.105Z,13.00
2023-11-30T06:03:33.318Z,12.93
2023-11-30T06:06:02.701Z,13.60
2023-11-30T06:08:30.920Z,11.77
2023-11-30T06:10:58.960Z,11.00
2023-11-30T06:13:26.817Z,10.93
2023-11-30T06:15:55.959Z,12.40
2023-11-30T06:18:24.572Z,12.18
2023-11-30T06:20:52.657Z,9.82
2023-11-30T06:23:22.060Z,10.77
2023-11-30T06:25:50.280Z,12.20
2023-11-30T06:28:18.445Z,11.27
2023-11-30T06:30:46.513Z,10.23
2023-11-30T06:33:14.614Z,10.55
2023-11-30T06:35:42.958Z,10.85
2023-11-30T06:38:11.587Z,13.13
2023-11-30T06:40:40.977Z,11.80
2023-11-30T06:43:09.320Z,10.60
2023-11-30T06:45:37.372Z,13.02
2023-11-30T06:48:05.629Z,12.40
2023-11-30T06:50:33.621Z,12.00
2023-11-30T06:53:01.646Z,13.57
2023-11-30T06:55:29.671Z,18.08
2023-11-30T06:57:58.903Z,17.90
2023-11-30T07:00:29.240Z,16.38
2023-11-30T07:02:57.194Z,14.85
2023-11-30T07:05:25.607Z,19.73
2023-11-30T07:07:53.527Z,18.58
2023-11-30T07:10:21.359Z,17.55
2023-11-30T07:12:49.621Z,15.43
2023-11-30T07:15:18.968Z,17.25
2023-11-30T07:17:47.196Z,16.00
2023-11-30T07:20:15.236Z,18.08
2023-11-30T07:22:43.048Z,17.52
2023-11-30T07:25:11.277Z,18.33
2023-11-30T07:27:39.180Z,19.60
2023-11-30T07:30:10.799Z,19.77
2023-11-30T07:32:41.362Z,17.45
2023-11-30T07:35:09.572Z,19.77
2023-11-30T07:37:37.416Z,37.92
2023-11-30T07:40:07.799Z,31.25
2023-11-30T07:42:37.749Z,31.67
2023-11-30T07:45:07.438Z,19.85
2023-11-30T07:47:35.370Z,19.02
2023-11-30T07:50:05.228Z,19.45
2023-11-30T07:52:36.660Z,18.42
2023-11-30T07:55:06.243Z,21.25
2023-11-30T07:57:34.677Z,18.58
2023-11-30T08:00:04.036Z,18.30
2023-11-30T08:02:32.226Z,17.05
2023-11-30T08:05:00.419Z,19.52
2023-11-30T08:07:29.701Z,18.65
2023-11-30T08:09:57.885Z,19.88
2023-11-30T08:12:25.779Z,19.73
2023-11-30T08:14:53.817Z,17.92
2023-11-30T08:17:22.243Z,18.48
2023-11-30T08:19:50.849Z,17.55
2023-11-30T08:22:18.736Z,16.00
2023-11-30T08:24:48.124Z,17.98
2023-11-30T08:27:16.079Z,16.08
2023-11-30T08:29:44.659Z,18.67
2023-11-30T08:32:13.117Z,17.35
2023-11-30T08:34:41.151Z,19.83
2023-11-30T08:37:09.182Z,16.65
2023-11-30T08:39:37.073Z,17.48
2023-11-30T08:42:07.314Z,22.48
2023-11-30T08:44:36.351Z,21.77
2023-11-30T08:47:04.214Z,20.42
2023-11-30T08:49:32.459Z,21.35
2023-11-30T08:52:00.522Z,22.38
2023-11-30T08:54:28.701Z,22.35
2023-11-30T08:56:56.826Z,23.85
2023-11-30T08:59:26.367Z,22.48
2023-11-30T09:01:54.526Z,23.13
2023-11-30T09:04:23.798Z,22.08
2023-11-30T09:06:51.697Z,23.33
2023-11-30T09:09:20.668Z,25.42
2023-11-30T09:11:48.519Z,24.80
2023-11-30T09:14:16.500Z,24.85
2023-11-30T09:16:45.767Z,23.92
2023-11-30T09:19:13.824Z,25.55
2023-11-30T09:21:41.832Z,25.58
2023-11-30T09:24:12.097Z,24.45
2023-11-30T09:26:42.480Z,25.00
2023-11-30T09:29:11.653Z,23.25
2023-11-30T09:31:42.356Z,24.17
2023-11-30T09:34:13.070Z,26.40
2023-11-30T09:36:41.559Z,23.92
2023-11-30T09:39:10.229Z,26.48
2023-11-30T09:41:39.331Z,25.08
2023-11-30T09:44:07.946Z,23.98
2023-11-30T09:46:35.944Z,23.33
2023-11-30T09:49:07.326Z,24.00
2023-11-30T09:51:39.217Z,20.35
2023-11-30T09:54:07.219Z,23.45
2023-11-30T09:56:35.715Z,21.95
2023-11-30T09:59:04.135Z,21.85
2023-11-30T10:01:32.234Z,23.00
2023-11-30T10:04:00.476Z,21.70
2023-11-30T10:06:28.484Z,21.00
2023-11-30T10:09:04.270Z,19.17
2023-11-30T10:11:32.176Z,20.45
2023-11-30T10:14:00.946Z,22.38
2023-11-30T10:16:29.234Z,22.67
2023-11-30T10:18:57.199Z,25.40
2023-11-30T10:21:25.375Z,22.65
2023-11-30T10:23:53.353Z,23.55
2023-11-30T10:26:24.935Z,21.38
2023-11-30T10:28:55.378Z,21.15
2023-11-30T10:31:24.228Z,21.70
2023-11-30T10:33:56.724Z,21.35
2023-11-30T10:36:28.208Z,21.95
2023-11-30T10:39:02.312Z,21.52
2023-11-30T10:41:42.209Z,22.85
2023-11-30T10:44:12.631Z,23.48
2023-11-30T10:46:41.788Z,26.67
2023-11-30T10:49:10.328Z,23.80
2023-11-30T10:51:40.079Z,24.60
2023-11-30T10:54:15.710Z,25.25
2023-11-30T10:56:45.170Z,26.42
2023-11-30T10:59:16.970Z,24.17
2023-11-30T11:01:46.492Z,29.65
2023-11-30T11:04:16.000Z,24.00
2023-11-30T11:06:45.084Z,23.77
2023-11-30T11:09:18.115Z,22.25
2023-11-30T11:11:48.785Z,23.92
2023-11-30T11:14:32.062Z,25.30
2023-11-30T11:17:08.169Z,26.35
2023-11-30T11:19:39.898Z,24.20
2023-11-30T11:22:16.479Z,25.05
2023-11-30T11:24:45.129Z,23.40
2023-11-30T11:27:28.378Z,24.77
2023-11-30T11:29:58.720Z,25.08
2023-11-30T11:32:27.604Z,24.08
2023-11-30T11:34:56.025Z,23.92
2023-11-30T11:37:24.071Z,27.92
2023-11-30T11:39:53.331Z,26.80
2023-11-30T11:42:23.351Z,24.50
2023-11-30T11:44:51.734Z,24.20
2023-11-30T11:47:21.131Z,26.67
2023-11-30T11:49:49.372Z,25.10
2023-11-30T11:52:21.149Z,24.10
2023-11-30T11:54:59.805Z,29.00
2023-11-30T11:57:34.386Z,28.70
2023-11-30T12:00:02.616Z,23.90
2023-11-30T12:02:35.672Z,27.17
2023-11-30T12:05:11.386Z,26.95
2023-11-30T12:07:50.274Z,26.20
2023-11-30T12:10:32.341Z,24.23
2023-11-30T12:13:03.321Z,23.67
2023-11-30T12:15:31.535Z,23.73
2023-11-30T12:17:59.572Z,25.58
2023-11-30T12:20:28.377Z,25.02
2023-11-30T12:22:57.044Z,25.50
2023-11-30T12:25:26.777Z,26.23
2023-11-30T12:27:55.000Z,25.85
2023-11-30T12:30:25.245Z,23.08
2023-11-30T12:32:53.867Z,22.58
2023-11-30T12:35:22.122Z,22.17
2023-11-30T12:37:50.427Z,21.65
2023-11-30T12:40:19.072Z,24.17
2023-11-30T12:42:48.555Z,25.70
2023-11-30T12:45:16.883Z,22.45
2023-11-30T12:47:47.333Z,21.63
2023-11-30T12:50:15.606Z,25.58
2023-11-30T12:52:43.667Z,20.90
2023-11-30T12:55:12.470Z,21.55
2023-11-30T12:57:41.068Z,22.98
2023-11-30T13:00:15.965Z,20.65
2023-11-30T13:02:48.905Z,21.90
2023-11-30T13:05:17.738Z,21.90
2023-11-30T13:07:45.681Z,22.40
2023-11-30T13:10:14.000Z,19.55
2023-11-30T13:12:43.348Z,20.15
2023-11-30T13:15:13.656Z,18.50
2023-11-30T13:17:42.661Z,20.80
2023-11-30T13:20:15.384Z,21.13
2023-11-30T13:22:45.790Z,19.52
2023-11-30T13:25:14.722Z,19.55
2023-11-30T13:27:43.866Z,20.83
2023-11-30T13:30:12.752Z,20.85
2023-11-30T13:32:40.845Z,19.77
2023-11-30T13:35:10.445Z,20.27
2023-11-30T13:37:40.430Z,23.60
2023-11-30T13:40:09.358Z,23.17
2023-11-30T13:42:37.233Z,22.90
2023-11-30T13:45:06.502Z,19.92
2023-11-30T13:47:35.345Z,21.48
2023-11-30T13:50:04.511Z,21.50
2023-11-30T13:52:32.884Z,20.90
2023-11-30T13:55:02.445Z,21.48
2023-11-30T13:57:30.532Z,21.27
2023-11-30T13:59:58.546Z,21.55
2023-11-30T14:02:26.452Z,32.33
2023-11-30T14:04:54.533Z,21.58
2023-11-30T14:07:22.403Z,22.20
2023-11-30T14:09:50.643Z,23.25
2023-11-30T14:12:20.100Z,24.48
2023-11-30T14:14:48.428Z,26.67
2023-11-30T14:17:17.435Z,27.55
2023-11-30T14:19:46.805Z,24.70
2023-11-30T14:22:15.458Z,23.10
2023-11-30T14:24:43.370Z,23.33
2023-11-30T14:27:11.470Z,23.17
2023-11-30T14:29:40.740Z,26.83
2023-11-30T14:32:09.725Z,27.55
2023-11-30T14:34:37.917Z,25.35
2023-11-30T14:37:06.231Z,26.05
2023-11-30T14:39:34.094Z,23.45
2023-11-30T14:42:02.275Z,23.90
2023-11-30T14:44:30.138Z,24.38
2023-11-30T14:47:00.548Z,23.52
2023-11-30T14:49:28.725Z,23.58
2023-11-30T14:51:56.817Z,25.13
2023-11-30T14:57:14.249Z,29.67
2023-11-30T14:59:42.376Z,28.27
2023-11-30T15:02:11.874Z,25.58
2023-11-30T15:04:40.312Z,31.67
2023-11-30T15:07:08.901Z,29.65
2023-11-30T15:09:37.273Z,31.05
2023-11-30T15:12:07.375Z,31.70
2023-11-30T15:14:35.379Z,31.02
2023-11-30T15:17:03.443Z,29.38
2023-11-30T15:19:32.931Z,33.05
2023-11-30T15:22:00.947Z,35.60
2023-11-30T15:24:29.382Z,32.05
2023-11-30T15:26:59.234Z,36.45
2023-11-30T15:29:27.579Z,33.33
2023-11-30T15:31:56.859Z,32.75
2023-11-30T15:34:25.039Z,30.80
2023-11-30T15:36:54.341Z,32.17
2023-11-30T15:39:25.320Z,30.77
2023-11-30T15:41:53.219Z,31.00
2023-11-30T15:44:21.475Z,30.15
2023-11-30T15:49:35.864Z,28.65
2023-11-30T15:52:05.528Z,28.50
2023-11-30T15:54:33.791Z,31.83
2023-11-30T15:57:01.640Z,44.45
2023-11-30T15:59:29.805Z,39.70
2023-11-30T16:01:57.766Z,38.53
2023-11-30T16:04:26.591Z,39.65
2023-11-30T16:06:54.525Z,33.88
2023-11-30T16:09:23.801Z,33.78
2023-11-30T16:11:51.796Z,36.70
2023-11-30T16:14:19.667Z,37.25
2023-11-30T16:16:52.204Z,34.10
2023-11-30T16:19:20.349Z,36.22
2023-11-30T16:21:51.746Z,37.30
2023-11-30T16:24:20.092Z,34.83
2023-11-30T16:26:49.576Z,36.78
2023-11-30T16:29:17.605Z,38.75
2023-11-30T16:31:45.539Z,39.20
2023-11-30T16:34:13.441Z,37.55
2023-11-30T16:36:42.466Z,36.60
2023-11-30T16:39:10.584Z,36.72
2023-11-30T16:41:38.641Z,31.65
2023-11-30T16:44:07.928Z,37.17
2023-11-30T16:46:37.149Z,34.80
2023-11-30T16:49:05.136Z,39.13
2023-11-30T16:51:33.242Z,36.15
2023-11-30T16:56:46.543Z,36.47
2023-11-30T16:59:17.581Z,33.53
2023-11-30T17:01:45.770Z,37.70
2023-11-30T17:04:13.826Z,38.45
2023-11-30T17:06:41.870Z,42.30
2023-11-30T17:09:09.836Z,38.38
2023-11-30T17:11:37.786Z,37.80
2023-11-30T17:14:06.474Z,42.83
2023-11-30T17:16:35.961Z,41.33
2023-11-30T17:19:03.954Z,42.05
2023-11-30T17:21:32.047Z,41.58
2023-11-30T17:23:59.907Z,40.42
2023-11-30T17:26:27.776Z,41.10
2023-11-30T17:28:55.887Z,38.63
2023-11-30T17:31:23.826Z,42.78
2023-11-30T17:33:55.605Z,40.03
2023-11-30T17:36:23.775Z,41.05
2023-11-30T17:38:51.665Z,36.70
2023-11-30T17:41:19.602Z,36.13
2023-11-30T17:43:47.620Z,38.00
2023-11-30T17:46:15.545Z,40.08
2023-11-30T17:48:43.446Z,36.50
2023-11-30T17:51:18.970Z,35.63
2023-11-30T17:53:47.856Z,38.35
2023-11-30T17:56:16.090Z,36.13
2023-11-30T17:58:43.952Z,34.50
2023-11-30T18:01:30.687Z,36.58
2023-11-30T18:03:58.742Z,35.10
2023-11-30T18:06:28.746Z,33.83
2023-11-30T18:08:56.920Z,34.63
2023-11-30T18:11:24.786Z,33.85
2023-11-30T18:13:52.639Z,33.22
2023-11-30T18:16:20.755Z,33.58
2023-11-30T18:18:48.699Z,42.70
2023-11-30T18:21:16.804Z,41.08
2023-11-30T18:23:46.017Z,39.17
2023-11-30T18:26:14.111Z,41.70
2023-11-30T18:28:42.000Z,37.90
2023-11-30T18:31:16.837Z,37.75
2023-11-30T18:34:08.878Z,41.38
2023-11-30T18:36:37.161Z,40.17
2023-11-30T18:39:06.778Z,36.70
2023-11-30T18:41:36.476Z,41.38
2023-11-30T18:44:04.831Z,43.10
2023-11-30T18:46:33.602Z,38.35
2023-11-30T18:49:02.835Z,37.53
2023-11-30T18:51:33.542Z,35.67
2023-11-30T18:54:01.686Z,34.10
2023-11-30T18:56:31.187Z,32.55
2023-11-30T18:58:59.781Z,32.80
2023-11-30T19:01:28.513Z,36.28
2023-11-30T19:03:56.430Z,36.63
2023-11-30T19:06:25.305Z,41.97
2023-11-30T19:08:53.539Z,37.58
2023-11-30T19:11:22.323Z,64.80
2023-11-30T19:13:51.662Z,59.08
2023-11-30T19:16:21.876Z,50.20
2023-11-30T19:18:51.129Z,86.20
2023-11-30T19:21:19.976Z,51.80
2023-11-30T19:23:47.958Z,44.85
2023-11-30T19:26:15.835Z,42.63
2023-11-30T19:28:43.808Z,41.67
2023-11-30T19:31:13.244Z,40.53
2023-11-30T19:33:41.352Z,40.78
2023-11-30T19:36:10.747Z,39.08
2023-11-30T19:38:38.756Z,39.55
2023-11-30T19:41:08.267Z,42.85
2023-11-30T19:43:36.295Z,43.50
2023-11-30T19:46:04.198Z,43.78
2023-11-30T19:48:34.343Z,48.20
2023-11-30T19:51:02.457Z,48.90
2023-11-30T19:53:31.251Z,49.85
2023-11-30T19:55:59.821Z,47.38
2023-11-30T19:58:27.843Z,49.67
2023-11-30T20:00:55.982Z,55.50
2023-11-30T20:03:24.002Z,59.63
2023-11-30T20:05:53.671Z,59.53
2023-11-30T20:08:21.809Z,58.78
2023-11-30T20:10:52.652Z,61.63
2023-11-30T20:13:20.713Z,63.65
2023-11-30T20:15:48.939Z,67.15
2023-11-30T20:18:16.910Z,64.55
2023-11-30T20:20:44.853Z,64.93
2023-11-30T20:23:14.403Z,68.68
2023-11-30T20:25:42.305Z,63.97
2023-11-30T20:28:10.547Z,66.03
2023-11-30T20:30:39.305Z,62.85
2023-11-30T20:33:07.346Z,82.75
2023-11-30T20:35:35.333Z,68.35
2023-11-30T20:38:03.322Z,66.78
2023-11-30T20:40:32.583Z,63.50
2023-11-30T20:45:46.401Z,59.55
2023-11-30T20:48:17.005Z,74.30
2023-11-30T20:50:45.079Z,62.95
2023-11-30T20:53:13.975Z,70.28
2023-11-30T20:55:44.584Z,56.67
2023-11-30T20:58:12.668Z,55.92
2023-11-30T21:00:40.643Z,73.40
2023-11-30T21:03:11.932Z,72.88
2023-11-30T21:05:40.432Z,69.80
2023-11-30T21:08:08.784Z,77.20
2023-11-30T21:10:37.171Z,67.15
2023-11-30T21:13:06.372Z,80.43
2023-11-30T21:15:34.346Z,80.57
2023-11-30T21:18:02.340Z,83.25
2023-11-30T21:20:30.483Z,74.95
2023-11-30T21:22:59.034Z,85.80
2023-11-30T21:25:26.982Z,68.65
2023-11-30T21:27:55.149Z,87.20
2023-11-30T21:30:25.069Z,67.53
2023-11-30T21:32:53.140Z,91.75
2023-11-30T21:35:21.198Z,78.47
2023-11-30T21:37:49.549Z,70.00
2023-11-30T21:40:17.760Z,77.95
2023-11-30T21:42:46.201Z,62.95
2023-11-30T21:45:15.366Z,61.92
2023-11-30T21:47:44.969Z,67.10
2023-11-30T21:50:17.482Z,66.70
2023-11-30T21:52:47.435Z,58.33
2023-11-30T21:55:15.324Z,58.10
2023-11-30T21:57:43.706Z,59.58
2023-11-30T22:00:14.478Z,61.25
2023-11-30T22:02:46.337Z,57.03
2023-11-30T22:05:23.611Z,63.97
2023-11-30T22:07:55.328Z,61.88
2023-11-30T22:10:23.283Z,54.70
2023-11-30T22:12:51.208Z,55.83
2023-11-30T22:15:20.623Z,59.20
2023-11-30T22:17:57.597Z,56.28
2023-11-30T22:20:25.517Z,54.40
2023-11-30T22:22:53.662Z,57.20
2023-11-30T22:25:21.630Z,57.15
2023-11-30T22:27:49.834Z,61.08
2023-11-30T22:30:17.842Z,60.47
2023-11-30T22:32:45.807Z,60.70
2023-11-30T22:35:15.281Z,56.78
2023-11-30T22:37:43.286Z,61.85
2023-11-30T22:40:12.128Z,60.15
2023-11-30T22:42:40.186Z,63.25
2023-11-30T22:45:08.894Z,59.53
2023-11-30T22:47:37.523Z,58.65
2023-11-30T22:50:06.382Z,55.35
2023-11-30T22:52:35.705Z,59.97
2023-11-30T22:55:03.820Z,56.83
2023-11-30T22:57:31.889Z,56.55
2023-11-30T22:59:59.994Z,55.28
2023-11-30T23:02:29.214Z,52.67
2023-11-30T23:04:58.561Z,52.92
2023-11-30T23:07:26.915Z,53.45
2023-11-30T23:09:56.230Z,53.65
2023-11-30T23:12:25.045Z,45.63
2023-11-30T23:14:53.055Z,43.88
2023-11-30T23:17:21.892Z,45.40
2023-11-30T23:19:50.182Z,49.70
2023-11-30T23:22:18.473Z,46.30
2023-11-30T23:24:46.500Z,50.42
2023-11-30T23:27:15.976Z,43.75
2023-11-30T23:29:43.868Z,46.00
2023-11-30T23:32:11.753Z,46.10
2023-11-30T23:34:39.720Z,47.65
2023-11-30T23:37:07.687Z,50.33
2023-11-30T23:39:35.635Z,51.72
2023-11-30T23:42:03.557Z,47.78
2023-11-30T23:44:33.015Z,44.60
2023-11-30T23:47:00.976Z,46.55
2023-11-30T23:49:28.972Z,44.00
2023-11-30T23:51:56.851Z,49.28
2023-11-30T23:54:24.848Z,50.10
2023-11-30T23:56:52.737Z,51.70
2023-11-30T23:59:20.791Z,47.15
